Date,TemperatureHighF,TemperatureAvgF,TemperatureLowF,DewpointHighF,DewpointAvgF,DewpointLowF,HumidityHigh,HumidityAvg,HumidityLow,PressureMaxIn,PressureMinIn,WindSpeedMaxMPH,WindSpeedAvgMPH,GustSpeedMaxMPH,PrecipitationSumIn
2013-1-1,58,38,28,36,30,23,97,76,26,30.33,30.23,4,1,9,0.00
2013-1-2,53,36,26,38,30,25,97,82,42,30.29,30.18,3,1,5,0.00
2013-1-3,53,36,26,37,30,25,97,83,43,30.32,30.21,4,1,8,0.01
2013-1-4,54,37,28,40,32,27,98,85,49,30.34,30.22,4,1,6,0.00
2013-1-5,50,41,30,43,37,30,98,88,67,30.31,30.14,4,1,6,0.06
2013-1-6,54,43,33,48,41,32,99,93,74,30.21,30.11,3,0,6,0.12
2013-1-7,54,40,31,47,38,31,99,91,68,30.24,30.17,4,1,6,0.01
2013-1-8,54,42,34,47,40,34,99,93,77,30.29,30.16,4,0,6,0.00
2013-1-9,49,42,34,46,40,33,99,96,87,30.21,29.92,5,1,10,0.21
2013-1-10,48,34,28,40,31,26,99,89,44,30.18,30.04,3,1,6,0.01
2013-1-11,48,33,25,36,29,24,98,86,53,30.26,30.16,3,1,6,0.00
2013-1-12,45,31,22,26,24,20,96,78,40,30.28,30.18,3,1,4,0.01
2013-1-13,47,30,19,26,22,18,95,76,33,30.34,30.23,5,1,9,0.00
2013-1-14,52,33,21,28,22,18,92,70,30,30.47,30.34,3,1,7,0.00
2013-1-15,50,34,25,35,29,24,96,82,52,30.56,30.42,3,1,5,0.00
2013-1-16,55,36,25,40,30,24,99,84,48,30.49,30.32,4,1,8,0.01
2013-1-17,57,36,24,40,31,24,97,84,49,30.33,30.19,4,1,6,0.00
2013-1-18,65,39,26,38,30,24,97,76,26,30.29,30.17,3,1,6,0.01
2013-1-19,64,40,26,39,30,24,96,75,29,30.33,30.20,3,1,4,0.01
2013-1-20,65,40,26,40,31,25,96,76,30,30.28,30.14,2,1,4,0.00
2013-1-21,60,40,27,41,32,26,96,79,38,30.24,30.15,5,2,9,0.01
2013-1-22,61,41,28,39,33,27,97,77,36,30.19,30.05,4,1,6,0.00
2013-1-23,58,47,37,49,42,34,98,85,54,30.15,30.01,3,0,4,0.44
2013-1-24,61,53,46,60,51,46,99,95,83,30.20,30.10,3,0,4,0.07
2013-1-25,63,54,50,56,52,49,99,93,75,30.20,30.04,4,0,6,0.03
2013-1-26,56,49,40,53,48,39,99,97,83,30.04,29.93,3,0,4,0.12
2013-1-27,55,41,32,46,35,30,100,84,40,30.16,30.02,4,1,11,0.01
2013-1-28,57,42,31,39,35,30,98,80,44,30.29,30.15,5,1,11,0.00
2013-1-29,62,42,32,44,37,31,98,84,48,30.37,30.25,3,1,7,0.00
2013-1-30,62,45,34,48,40,33,99,85,55,30.37,30.26,5,1,6,0.00
2013-1-31,62,43,31,48,39,30,99,87,56,30.34,30.22,3,1,5,0.01